sensor_id;sensor_type;location;lat;lon;timestamp;pressure;altitude;pressure_sealevel;temperature;humidity
46506;BME280;32220;49.808;9.968;2022-12-10T10:15:42;97984.44;;;8.67;76.54
46506;BME280;32220;49.808;9.968;2022-12-10T11:51:02;98069.38;;;9.73;55.15
46506;BME280;32220;49.808;9.968;2022-12-10T11:53:57;98084.56;;;9.46;55.04
46506;BME280;32220;49.808;9.968;2022-12-10T11:57:02;98046.09;;;8.91;54.34
46506;BME280;32220;49.808;9.968;2022-12-10T12:00:16;98072.50;;;8.91;54.89
46506;BME280;32220;49.808;9.968;2022-12-10T12:17:55;98026.06;;;7.97;57.87
46506;BME280;32220;49.808;9.968;2022-12-10T12:20:48;98037.09;;;8.16;58.48
46506;BME280;32220;49.808;9.968;2022-12-10T12:24:11;98039.44;;;8.21;58.93
46506;BME280;32220;49.808;9.968;2022-12-10T12:27:19;98077.94;;;8.38;58.45
46506;BME280;32220;49.808;9.968;2022-12-10T12:30:40;98036.31;;;7.75;57.30
46506;BME280;32220;49.808;9.968;2022-12-10T13:20:44;98021.59;;;4.89;68.64
46506;BME280;32220;49.808;9.968;2022-12-10T13:23:34;98010.31;;;4.87;69.13
46506;BME280;32220;49.808;9.968;2022-12-10T13:26:34;98037.81;;;4.95;69.73
46506;BME280;32220;49.808;9.968;2022-12-10T13:29:43;98044.47;;;5.02;69.99
46506;BME280;32220;49.808;9.968;2022-12-10T13:32:17;98051.63;;;4.99;69.98
46506;BME280;32220;49.808;9.968;2022-12-10T13:35:29;98064.06;;;4.95;70.08
46506;BME280;32220;49.808;9.968;2022-12-10T14:05:11;98095.06;;;4.54;70.74
46506;BME280;32220;49.808;9.968;2022-12-10T14:07:44;98074.31;;;4.50;70.45
46506;BME280;32220;49.808;9.968;2022-12-10T14:10:16;98094.44;;;4.66;70.34
46506;BME280;32220;49.808;9.968;2022-12-10T14:15:29;98112.72;;;4.68;70.62
46506;BME280;32220;49.808;9.968;2022-12-10T14:18:16;98117.97;;;4.68;71.24
46506;BME280;32220;49.808;9.968;2022-12-10T14:20:47;98109.53;;;4.61;71.46
46506;BME280;32220;49.808;9.968;2022-12-10T14:23:28;98080.38;;;4.33;71.32
46506;BME280;32220;49.808;9.968;2022-12-10T14:26:06;98119.59;;;4.53;71.62
46506;BME280;32220;49.808;9.968;2022-12-10T14:31:25;98087.47;;;4.14;72.93
46506;BME280;32220;49.808;9.968;2022-12-10T14:33:56;98124.34;;;4.28;73.04
46506;BME280;32220;49.808;9.968;2022-12-10T14:36:29;98069.88;;;3.98;74.33
46506;BME280;32220;49.808;9.968;2022-12-10T14:39:01;98105.97;;;4.11;75.05
46506;BME280;32220;49.808;9.968;2022-12-10T14:41:30;98116.16;;;4.17;74.86
46506;BME280;32220;49.808;9.968;2022-12-10T14:44:02;98098.69;;;3.98;75.02
46506;BME280;32220;49.808;9.968;2022-12-10T14:46:31;98132.00;;;4.14;75.45
46506;BME280;32220;49.808;9.968;2022-12-10T14:48:59;98107.53;;;3.96;75.47
46506;BME280;32220;49.808;9.968;2022-12-10T14:51:33;98139.53;;;4.03;76.15
46506;BME280;32220;49.808;9.968;2022-12-10T14:54:01;98126.69;;;3.79;77.00
46506;BME280;32220;49.808;9.968;2022-12-10T14:56:31;98154.72;;;3.77;77.21
46506;BME280;32220;49.808;9.968;2022-12-10T14:59:04;98162.22;;;3.66;78.03
46506;BME280;32220;49.808;9.968;2022-12-10T15:01:37;98166.50;;;3.48;78.92
46506;BME280;32220;49.808;9.968;2022-12-10T15:04:12;98154.44;;;3.25;79.62
46506;BME280;32220;49.808;9.968;2022-12-10T15:06:44;98157.34;;;3.19;79.93
46506;BME280;32220;49.808;9.968;2022-12-10T15:09:15;98133.69;;;3.02;80.51
46506;BME280;32220;49.808;9.968;2022-12-10T15:11:43;98127.03;;;2.95;80.18
46506;BME280;32220;49.808;9.968;2022-12-10T15:14:17;98159.72;;;3.05;80.08
46506;BME280;32220;49.808;9.968;2022-12-10T15:16:47;98159.06;;;3.00;80.15
46506;BME280;32220;49.808;9.968;2022-12-10T15:19:17;98167.56;;;3.05;80.20
46506;BME280;32220;49.808;9.968;2022-12-10T15:22:15;98180.97;;;3.18;80.11
46506;BME280;32220;49.808;9.968;2022-12-10T15:24:45;98187.16;;;3.15;79.90
46506;BME280;32220;49.808;9.968;2022-12-10T15:27:17;98185.28;;;3.19;79.71
46506;BME280;32220;49.808;9.968;2022-12-10T15:29:44;98187.03;;;3.18;79.45
46506;BME280;32220;49.808;9.968;2022-12-10T15:32:14;98186.13;;;3.19;79.48
46506;BME280;32220;49.808;9.968;2022-12-10T15:34:45;98188.75;;;3.19;80.07
46506;BME280;32220;49.808;9.968;2022-12-10T15:37:33;98192.28;;;3.18;80.14
